CYXE

Saskatoon John G. Diefenbaker International Airport

Saskatoon, Saskatchewan, Canada
METAR CYXE 241100Z 30007KT 15SM OVC021 01/01 A2994 RMK SC8 SLP165
Observed Flight Rules
Sep-24 @ 11:00 UTC (32 minutes ago) Marginal Visual Flight Rules
Wind Visibility Clouds
300° at 7 knots 15 miles
  • Overcast at 2,100' AGL
Temperatures Readings
Current 1°C / 34°F
Dewpoint 1°C / 34°F
Humidity 100%
Altimeter 29.94" Hg
Pressure 1016.5 hPa
Elevation 504
METAR CYXE 241100Z 30007KT 15SM OVC021 01/01 A2994 RMK SC8 SLP165
Observed Flight Rules
Sep-24 @ 11:00 UTC
(32 minutes ago)
MVFR
Wind Visibility
300° at 7 knots 15 miles
Clouds
  • Overcast at 2,100' AGL
Temperature Dewpoint
1°C / 34°F 1°C / 34°F
Humidity Altimeter Pressure
100% 29.94" Hg 1016.5 hPa